Time;durP1;ratioP1;P1;durP2;ratioP2;P2;SDS_P1;SDS_P2;PMS_P1;PMS_P2;Temp;Humidity;BMP_temperature;BMP_pressure;BME280_temperature;BME280_humidity;BME280_pressure;Samples;Min_cycle;Max_cycle;Signal;HPM_P1;HPM_P2
2022/05/23 00:00:57;;;;;;;;;10.67;10.67;;;;;;;;5121036;27;45300;-71
2022/05/23 00:03:22;;;;;;;;;9.67;9.67;;;;;;;;5121079;27;45332;-72
2022/05/23 00:05:47;;;;;;;;;9.67;9.67;;;;;;;;5121108;27;45400;-71
2022/05/23 00:08:12;;;;;;;;;9.67;9.00;;;;;;;;5119396;27;46255;-72
2022/05/23 00:10:38;;;;;;;;;8.33;8.33;;;;;;;;5120962;27;46004;-72
2022/05/23 00:13:03;;;;;;;;;10.00;10.00;;;;;;;;5120857;27;45343;-72
2022/05/23 00:15:28;;;;;;;;;9.33;9.33;;;;;;;;5112574;27;45544;-71
2022/05/23 00:17:55;;;;;;;;;10.67;9.00;;;;;;;;5100304;27;45321;-72
2022/05/23 00:20:22;;;;;;;;;8.00;7.33;;;;;;;;5099928;27;45466;-72
2022/05/23 00:22:47;;;;;;;;;9.67;9.67;;;;;;;;5099641;27;45332;-72
2022/05/23 00:25:12;;;;;;;;;8.00;8.00;;;;;;;;5098800;27;45325;-71
2022/05/23 00:27:39;;;;;;;;;7.00;7.00;;;;;;;;5100014;27;45259;-71
2022/05/23 00:30:08;;;;;;;;;8.67;8.00;;;;;;;;5098830;27;47242;-71
2022/05/23 00:35:17;;;;;;;;;7.00;7.00;;;;;;;;5099928;27;45456;-71
2022/05/23 00:37:43;;;;;;;;;10.67;9.33;;;;;;;;5099678;27;45305;-71
2022/05/23 00:40:15;;;;;;;;;8.00;7.67;;;;;;;;5099758;27;46092;-72
2022/05/23 00:45:25;;;;;;;;;7.67;7.67;;;;;;;;5099803;27;45218;-73
2022/05/23 00:47:52;;;;;;;;;7.67;7.67;;;;;;;;5099849;27;45334;-72
2022/05/23 00:50:18;;;;;;;;;8.00;8.00;;;;;;;;5099392;27;45341;-71
2022/05/23 00:52:44;;;;;;;;;9.00;9.00;;;;;;;;5099599;27;45283;-72
2022/05/23 00:55:15;;;;;;;;;8.00;8.00;;;;;;;;5098491;27;45332;-72
2022/05/23 00:57:44;;;;;;;;;8.00;8.00;;;;;;;;5099715;27;45397;-72
2022/05/23 01:00:10;;;;;;;;;7.00;7.00;;;;;;;;5099609;27;45357;-72
2022/05/23 01:02:36;;;;;;;;;9.00;8.33;;;;;;;;5099485;27;45172;-71
2022/05/23 01:05:03;;;;;;;;;9.00;9.00;;;;;;;;5099591;27;45319;-72
2022/05/23 01:07:28;;;;;;;;;9.00;9.00;;;;;;;;5099427;27;45361;-71
2022/05/23 01:09:53;;;;;;;;;7.00;7.00;;;;;;;;5099550;27;45405;-72
2022/05/23 01:12:18;;;;;;;;;11.00;11.00;;;;;;;;5098066;27;45533;-71
2022/05/23 01:14:45;;;;;;;;;9.00;9.00;;;;;;;;5101044;27;45301;-72
2022/05/23 01:17:10;;;;;;;;;8.67;8.67;;;;;;;;5120020;27;45439;-72
2022/05/23 01:19:35;;;;;;;;;6.33;6.33;;;;;;;;5119775;27;45362;-71
2022/05/23 01:22:05;;;;;;;;;9.00;8.00;;;;;;;;5119789;27;45371;-72
2022/05/23 01:24:42;;;;;;;;;5.67;5.33;;;;;;;;5120156;27;45272;-72
2022/05/23 01:27:08;;;;;;;;;6.00;6.00;;;;;;;;5118294;27;47708;-72
2022/05/23 01:29:34;;;;;;;;;7.00;7.00;;;;;;;;5119712;27;46074;-72
2022/05/23 01:31:59;;;;;;;;;7.67;7.33;;;;;;;;5119721;27;45332;-72
2022/05/23 01:34:25;;;;;;;;;7.00;7.00;;;;;;;;5120511;27;45433;-72
2022/05/23 01:36:50;;;;;;;;;7.67;7.67;;;;;;;;5123203;27;45455;-72
2022/05/23 01:39:15;;;;;;;;;6.33;6.33;;;;;;;;5123209;27;45399;-72
2022/05/23 01:41:41;;;;;;;;;7.67;7.67;;;;;;;;5123145;27;45313;-72
2022/05/23 01:44:06;;;;;;;;;7.67;7.67;;;;;;;;5123590;27;45262;-72
2022/05/23 01:46:31;;;;;;;;;6.00;6.00;;;;;;;;5123199;27;45520;-72
2022/05/23 01:48:56;;;;;;;;;7.00;7.00;;;;;;;;5123084;27;46735;-71
2022/05/23 01:51:22;;;;;;;;;7.00;7.00;;;;;;;;5121826;27;45349;-72
2022/05/23 01:53:47;;;;;;;;;8.00;6.00;;;;;;;;5123193;27;45315;-71
2022/05/23 01:56:12;;;;;;;;;6.67;6.67;;;;;;;;5123043;27;45396;-71
2022/05/23 02:01:25;;;;;;;;;6.33;6.33;;;;;;;;5122808;27;45391;-72
2022/05/23 02:03:50;;;;;;;;;7.67;7.67;;;;;;;;5122886;27;45339;-72
2022/05/23 02:06:16;;;;;;;;;8.67;8.67;;;;;;;;5123072;27;45264;-72
2022/05/23 02:08:41;;;;;;;;;2.33;2.33;;;;;;;;5122747;27;45260;-72
2022/05/23 02:11:06;;;;;;;;;6.00;6.00;;;;;;;;5121472;27;45270;-72
2022/05/23 02:13:33;;;;;;;;;6.33;6.33;;;;;;;;5122928;27;45152;-71
2022/05/23 02:15:58;;;;;;;;;7.00;7.00;;;;;;;;5110365;27;45208;-72
2022/05/23 02:18:24;;;;;;;;;6.00;6.00;;;;;;;;5101918;27;45155;-72
2022/05/23 02:20:49;;;;;;;;;8.33;8.00;;;;;;;;5101954;27;45294;-71
2022/05/23 02:23:14;;;;;;;;;8.33;7.33;;;;;;;;5102037;27;45257;-72
2022/05/23 02:25:39;;;;;;;;;7.00;7.00;;;;;;;;5102062;27;45389;-71
2022/05/23 02:28:04;;;;;;;;;8.00;8.00;;;;;;;;5102016;27;45360;-71
2022/05/23 02:30:30;;;;;;;;;9.00;8.00;;;;;;;;5102047;27;45200;-72
2022/05/23 02:32:55;;;;;;;;;9.00;6.00;;;;;;;;5100451;27;45693;-72
2022/05/23 02:35:20;;;;;;;;;8.00;7.67;;;;;;;;5101624;27;45198;-72
2022/05/23 02:37:45;;;;;;;;;6.00;6.00;;;;;;;;5101823;27;45331;-72
2022/05/23 02:40:11;;;;;;;;;9.33;8.00;;;;;;;;5101453;27;45420;-71
2022/05/23 02:42:37;;;;;;;;;7.00;6.00;;;;;;;;5101795;27;45283;-71
2022/05/23 02:45:03;;;;;;;;;7.33;7.33;;;;;;;;5101419;27;45466;-71
2022/05/23 02:47:28;;;;;;;;;9.00;9.00;;;;;;;;5101473;27;45389;-72
2022/05/23 02:49:54;;;;;;;;;9.33;8.67;;;;;;;;5101409;27;45439;-73
2022/05/23 02:52:19;;;;;;;;;7.00;7.00;;;;;;;;5101641;27;45369;-71
2022/05/23 02:54:44;;;;;;;;;10.00;9.67;;;;;;;;5101468;27;45359;-71
2022/05/23 02:57:09;;;;;;;;;9.67;8.33;;;;;;;;5101510;27;45343;-71
2022/05/23 02:59:35;;;;;;;;;9.33;8.33;;;;;;;;5101398;27;45276;-72
2022/05/23 03:04:44;;;;;;;;;10.00;8.33;;;;;;;;5101137;27;45315;-71
2022/05/23 03:07:09;;;;;;;;;8.00;7.00;;;;;;;;5101081;27;45384;-71
2022/05/23 03:09:34;;;;;;;;;5.67;5.67;;;;;;;;5101284;27;45373;-71
2022/05/23 03:12:00;;;;;;;;;9.67;9.33;;;;;;;;5101482;27;45373;-71
2022/05/23 03:14:26;;;;;;;;;8.00;8.00;;;;;;;;5101145;27;45455;-71
2022/05/23 03:16:51;;;;;;;;;9.67;8.67;;;;;;;;5120666;27;45277;-71
2022/05/23 03:19:16;;;;;;;;;7.67;7.67;;;;;;;;5121601;27;45325;-71
2022/05/23 03:27:09;;;;;;;;;9.00;8.33;;;;;;;;5121319;27;45423;-71
2022/05/23 03:29:35;;;;;;;;;6.67;6.67;;;;;;;;5121589;27;45360;-72
2022/05/23 03:32:00;;;;;;;;;7.00;7.00;;;;;;;;5121784;27;45361;-71
2022/05/23 03:34:25;;;;;;;;;10.33;9.33;;;;;;;;5121031;27;45409;-71
2022/05/23 03:36:50;;;;;;;;;8.00;8.00;;;;;;;;5121448;27;45283;-72
2022/05/23 03:39:16;;;;;;;;;8.00;7.00;;;;;;;;5120062;27;45287;-71
2022/05/23 03:41:41;;;;;;;;;6.67;6.67;;;;;;;;5121502;27;45452;-71
2022/05/23 03:44:09;;;;;;;;;8.00;8.00;;;;;;;;5121397;27;45205;-71
2022/05/23 03:46:35;;;;;;;;;8.67;8.67;;;;;;;;5120976;27;45272;-72
2022/05/23 03:49:01;;;;;;;;;9.00;7.67;;;;;;;;5119701;27;45970;-71
2022/05/23 03:51:26;;;;;;;;;7.00;7.00;;;;;;;;5121301;27;45293;-71
2022/05/23 03:53:51;;;;;;;;;7.00;6.00;;;;;;;;5121059;27;45630;-71
2022/05/23 03:56:17;;;;;;;;;6.00;6.00;;;;;;;;5120383;27;45388;-72
2022/05/23 03:58:43;;;;;;;;;7.33;7.33;;;;;;;;5121152;27;45359;-72
2022/05/23 04:01:10;;;;;;;;;8.00;8.00;;;;;;;;5121234;27;45289;-71
2022/05/23 04:03:35;;;;;;;;;7.00;6.33;;;;;;;;5121030;27;45586;-72
2022/05/23 04:06:01;;;;;;;;;10.00;9.00;;;;;;;;5120771;27;45319;-71
2022/05/23 04:08:26;;;;;;;;;8.00;8.00;;;;;;;;5120943;27;45303;-71
2022/05/23 04:10:51;;;;;;;;;7.00;7.00;;;;;;;;5121206;27;45316;-71
2022/05/23 04:13:17;;;;;;;;;10.00;10.00;;;;;;;;5120822;27;45402;-72
2022/05/23 04:15:42;;;;;;;;;10.00;10.00;;;;;;;;5110769;27;45443;-72
2022/05/23 04:18:07;;;;;;;;;11.00;11.00;;;;;;;;5100318;27;45404;-73
2022/05/23 04:20:32;;;;;;;;;10.00;8.00;;;;;;;;5098820;27;45471;-73
2022/05/23 04:22:58;;;;;;;;;10.00;10.00;;;;;;;;5100102;27;45432;-73
2022/05/23 04:25:23;;;;;;;;;12.00;9.67;;;;;;;;5100025;27;46329;-72
2022/05/23 04:27:48;;;;;;;;;9.00;8.00;;;;;;;;5100237;27;45313;-72
2022/05/23 04:30:13;;;;;;;;;10.67;10.67;;;;;;;;5099987;27;45234;-72
2022/05/23 04:35:23;;;;;;;;;7.33;7.33;;;;;;;;5099384;27;45267;-72
2022/05/23 04:37:49;;;;;;;;;10.00;10.00;;;;;;;;5099832;27;45340;-72
2022/05/23 04:40:16;;;;;;;;;9.67;8.33;;;;;;;;5099748;27;45325;-74
2022/05/23 04:42:42;;;;;;;;;9.00;8.00;;;;;;;;5099650;27;46182;-72
2022/05/23 04:45:08;;;;;;;;;8.00;8.00;;;;;;;;5099628;27;45435;-72
2022/05/23 04:50:17;;;;;;;;;8.00;8.00;;;;;;;;5099618;27;45415;-71
2022/05/23 04:52:43;;;;;;;;;8.00;8.00;;;;;;;;5099501;27;45293;-71
2022/05/23 04:55:09;;;;;;;;;8.67;8.67;;;;;;;;5099500;27;45986;-71
2022/05/23 04:57:34;;;;;;;;;12.00;9.67;;;;;;;;5099624;27;45373;-72
2022/05/23 05:00:00;;;;;;;;;7.67;7.67;;;;;;;;5099844;27;45285;-71
2022/05/23 05:02:25;;;;;;;;;8.67;8.00;;;;;;;;5096412;27;45428;-72
2022/05/23 05:04:51;;;;;;;;;10.00;9.33;;;;;;;;5087741;27;46346;-71
2022/05/23 05:07:16;;;;;;;;;6.33;6.33;;;;;;;;5079022;28;45517;-72
2022/05/23 05:09:41;;;;;;;;;8.67;8.67;;;;;;;;5095670;27;45582;-72
2022/05/23 05:12:07;;;;;;;;;7.00;7.00;;;;;;;;5103106;27;45234;-71
2022/05/23 05:14:34;;;;;;;;;8.67;8.00;;;;;;;;5101628;27;47343;-71
2022/05/23 05:17:00;;;;;;;;;8.33;8.33;;;;;;;;5082614;27;45243;-72
2022/05/23 05:19:25;;;;;;;;;6.00;6.00;;;;;;;;5082451;27;45397;-71
2022/05/23 05:21:50;;;;;;;;;9.00;9.00;;;;;;;;5082386;27;45272;-71
2022/05/23 05:24:17;;;;;;;;;7.00;6.67;;;;;;;;5082456;28;45418;-71
2022/05/23 05:26:43;;;;;;;;;10.00;10.00;;;;;;;;5082428;28;45294;-71
2022/05/23 05:29:08;;;;;;;;;8.67;8.33;;;;;;;;5082478;27;45456;-72
2022/05/23 05:31:56;;;;;;;;;8.00;8.00;;;;;;;;5082182;28;45441;-71
2022/05/23 05:34:26;;;;;;;;;13.00;11.67;;;;;;;;5078699;27;45278;-71
2022/05/23 05:36:54;;;;;;;;;12.33;10.33;;;;;;;;5081975;27;45418;-72
2022/05/23 05:39:22;;;;;;;;;13.00;11.00;;;;;;;;5082244;27;45297;-72
2022/05/23 05:41:51;;;;;;;;;9.00;9.00;;;;;;;;5082013;27;45446;-72
2022/05/23 05:44:19;;;;;;;;;12.00;11.00;;;;;;;;5081834;27;46352;-72
2022/05/23 05:46:46;;;;;;;;;11.00;9.67;;;;;;;;5081975;28;45340;-71
2022/05/23 05:49:14;;;;;;;;;12.33;12.33;;;;;;;;5081921;27;45359;-72
2022/05/23 05:51:41;;;;;;;;;13.67;13.67;;;;;;;;5081843;27;45283;-72
2022/05/23 05:54:08;;;;;;;;;15.67;14.00;;;;;;;;5081647;28;46264;-72
2022/05/23 05:56:34;;;;;;;;;13.33;13.33;;;;;;;;5080351;28;45398;-72
2022/05/23 05:58:59;;;;;;;;;13.00;13.00;;;;;;;;5082101;28;45362;-71
2022/05/23 06:01:25;;;;;;;;;13.00;12.00;;;;;;;;5081490;27;45361;-72
2022/05/23 06:03:50;;;;;;;;;13.00;13.00;;;;;;;;5081674;27;46118;-72
2022/05/23 06:11:43;;;;;;;;;14.00;13.00;;;;;;;;5081355;28;45446;-72
2022/05/23 06:14:08;;;;;;;;;10.00;10.00;;;;;;;;5081358;27;46189;-72
2022/05/23 06:16:35;;;;;;;;;10.67;10.67;;;;;;;;5115649;27;45265;-72
2022/05/23 06:19:01;;;;;;;;;13.67;12.67;;;;;;;;5096771;27;45286;-72
2022/05/23 06:21:27;;;;;;;;;12.00;12.00;;;;;;;;5092904;27;45468;-72
2022/05/23 06:23:52;;;;;;;;;12.67;12.33;;;;;;;;5081908;27;46397;-72
2022/05/23 06:26:21;;;;;;;;;9.00;9.00;;;;;;;;5082104;27;45410;-73
2022/05/23 06:28:46;;;;;;;;;10.00;10.00;;;;;;;;5082777;27;45420;-72
2022/05/23 06:31:12;;;;;;;;;13.00;12.00;;;;;;;;5081452;27;45228;-73
2022/05/23 06:33:37;;;;;;;;;14.00;13.33;;;;;;;;5080915;28;45591;-72
2022/05/23 06:36:06;;;;;;;;;11.00;11.00;;;;;;;;5082373;27;45365;-72
2022/05/23 06:38:31;;;;;;;;;13.00;11.67;;;;;;;;5101644;27;45200;-72
2022/05/23 06:40:57;;;;;;;;;12.00;10.67;;;;;;;;5101640;27;45185;-72
2022/05/23 06:43:22;;;;;;;;;13.33;12.00;;;;;;;;5101093;27;45276;-72
2022/05/23 06:45:48;;;;;;;;;9.00;9.00;;;;;;;;5101304;27;45435;-72
2022/05/23 06:48:13;;;;;;;;;10.00;9.00;;;;;;;;5101379;27;45265;-72
2022/05/23 06:50:39;;;;;;;;;13.00;13.00;;;;;;;;5101337;27;45491;-72
2022/05/23 06:53:04;;;;;;;;;13.00;13.00;;;;;;;;5101229;27;45243;-72
2022/05/23 06:55:30;;;;;;;;;12.33;11.33;;;;;;;;5094142;27;45182;-72
2022/05/23 06:57:55;;;;;;;;;11.33;11.33;;;;;;;;5087781;27;45307;-72
2022/05/23 07:00:20;;;;;;;;;14.67;14.67;;;;;;;;5095854;27;45266;-72
2022/05/23 07:02:46;;;;;;;;;12.00;12.00;;;;;;;;5101423;27;46306;-72
2022/05/23 07:13:23;;;;;;;;;15.33;12.67;;;;;;;;5101022;27;45238;-72
2022/05/23 07:15:48;;;;;;;;;15.00;15.00;;;;;;;;5111586;27;45210;-72
2022/05/23 07:18:18;;;;;;;;;15.00;13.67;;;;;;;;5086547;27;45226;-72
2022/05/23 07:20:43;;;;;;;;;12.67;12.67;;;;;;;;5080460;27;45392;-73
2022/05/23 07:23:09;;;;;;;;;14.00;14.00;;;;;;;;5080512;27;45353;-72
2022/05/23 07:25:34;;;;;;;;;12.67;11.00;;;;;;;;5080619;28;45498;-73
2022/05/23 07:28:00;;;;;;;;;12.00;11.33;;;;;;;;5080741;27;45302;-72
2022/05/23 07:30:25;;;;;;;;;14.33;13.67;;;;;;;;5079930;27;45347;-73
2022/05/23 07:32:50;;;;;;;;;12.00;12.00;;;;;;;;5078685;27;45547;-74
2022/05/23 07:35:16;;;;;;;;;13.33;12.33;;;;;;;;5079155;28;45330;-73
2022/05/23 07:37:42;;;;;;;;;12.33;11.33;;;;;;;;5080373;28;45491;-75
2022/05/23 07:40:07;;;;;;;;;13.33;12.33;;;;;;;;5078648;28;47125;-74
2022/05/23 07:42:33;;;;;;;;;14.00;14.00;;;;;;;;5080089;27;45283;-74
2022/05/23 07:44:58;;;;;;;;;15.33;15.00;;;;;;;;5079501;27;45501;-75
2022/05/23 07:47:23;;;;;;;;;10.67;10.67;;;;;;;;5078189;27;45354;-74
2022/05/23 07:49:50;;;;;;;;;13.00;13.00;;;;;;;;5077650;28;45340;-73
2022/05/23 07:52:15;;;;;;;;;14.67;14.00;;;;;;;;5077738;27;45413;-74
2022/05/23 08:02:52;;;;;;;;;17.33;16.00;;;;;;;;5079710;28;45682;-74
2022/05/23 08:05:18;;;;;;;;;16.67;16.67;;;;;;;;5078322;28;45245;-74
2022/05/23 08:07:43;;;;;;;;;16.33;14.33;;;;;;;;5078453;28;45290;-74
2022/05/23 08:10:09;;;;;;;;;16.00;16.00;;;;;;;;5079879;27;45442;-74
2022/05/23 08:12:35;;;;;;;;;16.67;16.00;;;;;;;;5078184;28;46706;-74
2022/05/23 08:15:00;;;;;;;;;15.67;15.67;;;;;;;;5087563;27;45354;-73
2022/05/23 08:17:26;;;;;;;;;17.33;17.00;;;;;;;;5120900;27;45306;-74
2022/05/23 08:19:51;;;;;;;;;22.67;21.33;;;;;;;;5120504;27;45321;-74
2022/05/23 08:22:17;;;;;;;;;19.00;17.33;;;;;;;;5120499;27;45399;-74
2022/05/23 08:24:43;;;;;;;;;17.33;17.33;;;;;;;;5120744;27;45361;-74
2022/05/23 08:27:08;;;;;;;;;17.33;16.00;;;;;;;;5120736;27;45345;-73
2022/05/23 08:29:35;;;;;;;;;17.00;17.00;;;;;;;;5120642;27;45337;-74
2022/05/23 08:32:01;;;;;;;;;18.33;18.33;;;;;;;;5120578;27;45959;-74
2022/05/23 08:34:27;;;;;;;;;18.67;18.67;;;;;;;;5120032;27;45340;-73
2022/05/23 08:36:52;;;;;;;;;18.00;16.33;;;;;;;;5120675;27;45349;-74
2022/05/23 08:39:18;;;;;;;;;19.00;18.67;;;;;;;;5120356;27;45391;-74
2022/05/23 08:41:44;;;;;;;;;19.67;19.00;;;;;;;;5120426;27;45309;-73
2022/05/23 08:44:10;;;;;;;;;17.00;16.33;;;;;;;;5122732;27;45340;-76
2022/05/23 08:46:41;;;;;;;;;18.33;18.33;;;;;;;;5124205;27;45448;-75
2022/05/23 08:49:14;;;;;;;;;19.67;17.67;;;;;;;;5123862;27;45344;-75
2022/05/23 08:51:40;;;;;;;;;21.33;21.33;;;;;;;;5123866;27;46315;-74
2022/05/23 08:54:11;;;;;;;;;17.67;17.67;;;;;;;;5122611;27;45309;-74
2022/05/23 08:56:37;;;;;;;;;17.00;17.00;;;;;;;;5124083;27;45372;-75
2022/05/23 08:59:05;;;;;;;;;15.33;13.67;;;;;;;;5124148;27;45312;-75
2022/05/23 09:01:39;;;;;;;;;15.00;13.33;;;;;;;;5109520;27;47368;-74
2022/05/23 09:04:05;;;;;;;;;18.33;16.67;;;;;;;;5082820;28;45310;-75
2022/05/23 09:06:37;;;;;;;;;16.00;16.00;;;;;;;;5082607;27;45374;-74
2022/05/23 09:09:06;;;;;;;;;17.67;17.00;;;;;;;;5082499;27;45333;-75
2022/05/23 09:11:33;;;;;;;;;18.67;18.67;;;;;;;;5082469;28;45322;-74
2022/05/23 09:13:59;;;;;;;;;19.67;17.00;;;;;;;;5082746;27;45365;-74
2022/05/23 09:16:28;;;;;;;;;19.33;18.33;;;;;;;;5090725;27;45252;-75
2022/05/23 09:18:59;;;;;;;;;16.67;15.67;;;;;;;;5082505;28;45324;-74
2022/05/23 09:22:12;;;;;;;;;20.67;19.67;;;;;;;;5082410;27;45429;-75
2022/05/23 09:24:11;;;;;;;;;19.33;19.33;;;;;;;;5082306;27;45413;-75
2022/05/23 09:26:36;;;;;;;;;19.00;18.00;;;;;;;;5081014;28;45338;-74
2022/05/23 09:29:03;;;;;;;;;19.00;17.33;;;;;;;;5082488;27;45231;-74
2022/05/23 09:31:31;;;;;;;;;19.67;18.33;;;;;;;;5081035;28;47152;-74
2022/05/23 09:33:56;;;;;;;;;21.33;21.33;;;;;;;;5081908;27;45344;-74
2022/05/23 09:36:22;;;;;;;;;15.33;15.33;;;;;;;;5082419;27;45196;-74
2022/05/23 09:38:58;;;;;;;;;19.00;18.33;;;;;;;;5081874;27;45334;-74
2022/05/23 09:41:27;;;;;;;;;11.33;11.33;;;;;;;;5080928;28;47083;-74
2022/05/23 09:49:23;;;;;;;;;14.00;13.00;;;;;;;;5094154;27;45341;-75
2022/05/23 09:52:15;;;;;;;;;13.00;13.00;;;;;;;;5102264;27;45345;-74
2022/05/23 09:54:46;;;;;;;;;15.00;14.33;;;;;;;;5099932;27;45643;-75
2022/05/23 09:57:39;;;;;;;;;15.00;14.67;;;;;;;;5102571;27;45325;-75
2022/05/23 10:00:04;;;;;;;;;17.00;17.00;;;;;;;;5099220;27;46634;-74
2022/05/23 10:02:29;;;;;;;;;15.33;15.00;;;;;;;;5102182;27;45736;-75
2022/05/23 10:04:55;;;;;;;;;17.00;17.00;;;;;;;;5102181;27;45341;-74
2022/05/23 10:07:35;;;;;;;;;15.67;15.67;;;;;;;;5085670;27;45374;-76
2022/05/23 10:10:02;;;;;;;;;15.00;15.00;;;;;;;;5099440;27;46173;-76
2022/05/23 10:12:28;;;;;;;;;17.67;17.67;;;;;;;;5086891;27;46453;-73
2022/05/23 10:15:02;;;;;;;;;16.33;16.00;;;;;;;;5104247;27;45422;-75
2022/05/23 10:17:28;;;;;;;;;18.67;17.00;;;;;;;;5103570;27;45330;-74
2022/05/23 10:19:54;;;;;;;;;21.33;20.67;;;;;;;;5101756;27;45347;-75
2022/05/23 10:22:24;;;;;;;;;20.67;20.00;;;;;;;;5099960;27;47245;-74
2022/05/23 10:24:52;;;;;;;;;17.00;17.00;;;;;;;;5101884;27;45409;-75
2022/05/23 10:27:25;;;;;;;;;21.00;20.00;;;;;;;;5101938;27;45312;-74
2022/05/23 10:29:55;;;;;;;;;22.33;21.33;;;;;;;;5101714;27;45326;-74
2022/05/23 10:32:26;;;;;;;;;20.33;18.67;;;;;;;;5100021;27;47091;-74
2022/05/23 10:34:55;;;;;;;;;19.33;19.33;;;;;;;;5095421;27;45428;-73
2022/05/23 10:37:25;;;;;;;;;20.00;20.00;;;;;;;;5081304;27;45396;-73
2022/05/23 10:42:51;;;;;;;;;18.00;18.00;;;;;;;;5080561;28;45809;-75
2022/05/23 10:45:23;;;;;;;;;17.00;17.00;;;;;;;;5081127;28;45270;-74
2022/05/23 10:47:54;;;;;;;;;22.00;21.33;;;;;;;;5078439;27;45455;-74
2022/05/23 10:50:25;;;;;;;;;18.33;18.00;;;;;;;;5101224;27;45675;-74
2022/05/23 10:52:54;;;;;;;;;20.33;20.33;;;;;;;;5101050;27;46381;-74
2022/05/23 10:55:19;;;;;;;;;20.00;20.00;;;;;;;;5085234;27;45328;-73
2022/05/23 10:57:50;;;;;;;;;23.67;23.33;;;;;;;;5095223;27;45383;-72
2022/05/23 11:00:22;;;;;;;;;24.00;23.00;;;;;;;;5092940;27;45609;-74
2022/05/23 11:02:56;;;;;;;;;22.00;22.00;;;;;;;;5080212;27;45421;-74
2022/05/23 11:05:54;;;;;;;;;23.67;23.33;;;;;;;;5080536;27;45415;-72
2022/05/23 11:08:28;;;;;;;;;23.67;23.67;;;;;;;;5079181;27;45439;-73
2022/05/23 11:10:58;;;;;;;;;29.00;26.67;;;;;;;;5079328;27;45358;-72
2022/05/23 11:14:02;;;;;;;;;27.00;26.00;;;;;;;;5079237;27;47240;-74
2022/05/23 11:16:33;;;;;;;;;29.67;27.33;;;;;;;;5087392;27;45276;-73
2022/05/23 11:18:58;;;;;;;;;28.33;27.33;;;;;;;;5077896;28;45442;-73
2022/05/23 11:21:32;;;;;;;;;28.33;27.67;;;;;;;;5089496;27;45408;-75
2022/05/23 11:24:03;;;;;;;;;28.00;28.00;;;;;;;;5082989;27;47130;-76
2022/05/23 11:26:31;;;;;;;;;30.33;28.00;;;;;;;;5088725;27;45336;-76
2022/05/23 11:34:35;;;;;;;;;39.67;34.00;;;;;;;;5080401;27;45761;-76
2022/05/23 11:39:41;;;;;;;;;33.67;30.67;;;;;;;;5079568;27;45320;-76
2022/05/23 11:42:14;;;;;;;;;37.00;33.00;;;;;;;;5078363;28;46112;-75
2022/05/23 11:44:42;;;;;;;;;34.67;31.67;;;;;;;;5079390;27;46088;-74
2022/05/23 11:47:21;;;;;;;;;35.00;31.67;;;;;;;;5080115;28;45244;-75
2022/05/23 11:49:50;;;;;;;;;38.00;33.00;;;;;;;;5080008;27;45409;-75
2022/05/23 11:52:21;;;;;;;;;36.00;31.67;;;;;;;;5079963;28;45383;-75
2022/05/23 11:54:46;;;;;;;;;35.67;31.00;;;;;;;;5079856;28;45391;-75
2022/05/23 11:57:13;;;;;;;;;39.33;34.67;;;;;;;;5078677;28;45424;-75
2022/05/23 11:59:39;;;;;;;;;40.00;33.67;;;;;;;;5080309;27;45348;-75
2022/05/23 12:02:07;;;;;;;;;41.33;35.33;;;;;;;;5080074;28;45362;-75
2022/05/23 12:04:33;;;;;;;;;41.67;36.00;;;;;;;;5078385;28;47227;-75
2022/05/23 12:06:58;;;;;;;;;47.50;38.75;;;;;;;;5079771;27;45312;-75
2022/05/23 12:09:28;;;;;;;;;41.67;35.67;;;;;;;;5080167;28;45291;-75
2022/05/23 12:12:13;;;;;;;;;38.67;33.67;;;;;;;;5080283;27;45389;-75
2022/05/23 12:14:39;;;;;;;;;39.33;35.33;;;;;;;;5080968;27;46423;-74
2022/05/23 12:17:10;;;;;;;;;34.50;31.00;;;;;;;;5109725;27;45469;-74
2022/05/23 12:19:38;;;;;;;;;38.67;34.00;;;;;;;;5100389;27;45293;-74
2022/05/23 12:22:22;;;;;;;;;40.00;33.67;;;;;;;;5098538;27;45348;-74
2022/05/23 12:24:56;;;;;;;;;37.67;33.67;;;;;;;;5099848;27;46043;-75
2022/05/23 12:27:33;;;;;;;;;35.00;31.67;;;;;;;;5099242;27;45376;-76
2022/05/23 12:30:33;;;;;;;;;35.33;32.67;;;;;;;;5100520;27;45285;-75
2022/05/23 12:33:05;;;;;;;;;85.25;81.75;;;;;;;;5077536;28;45599;-74
2022/05/23 12:35:40;;;;;;;;;41.33;34.67;;;;;;;;5095137;27;45295;-77
2022/05/23 12:38:11;;;;;;;;;37.00;32.00;;;;;;;;5084482;27;45478;-76
2022/05/23 12:40:45;;;;;;;;;38.33;33.00;;;;;;;;5099494;27;45497;-74
2022/05/23 12:43:26;;;;;;;;;38.33;33.00;;;;;;;;5080524;27;45243;-76
2022/05/23 12:45:54;;;;;;;;;40.67;34.00;;;;;;;;5087864;27;45365;-77
2022/05/23 12:48:38;;;;;;;;;39.00;34.33;;;;;;;;5099494;27;45301;-76
2022/05/23 12:51:18;;;;;;;;;43.00;36.33;;;;;;;;5097726;27;45351;-75
2022/05/23 12:53:49;;;;;;;;;41.67;36.00;;;;;;;;5099321;27;45368;-75
2022/05/23 12:56:26;;;;;;;;;41.33;35.00;;;;;;;;5099339;27;45290;-76
2022/05/23 12:58:58;;;;;;;;;40.33;34.33;;;;;;;;5097646;27;45918;-76
2022/05/23 13:01:27;;;;;;;;;44.00;37.75;;;;;;;;5089393;27;45422;-75
2022/05/23 13:04:14;;;;;;;;;41.33;35.67;;;;;;;;5078601;28;45346;-76
2022/05/23 13:07:00;;;;;;;;;41.00;35.00;;;;;;;;5081029;27;47806;-76
2022/05/23 13:09:36;;;;;;;;;41.33;35.33;;;;;;;;5099366;27;45371;-77
2022/05/23 13:12:06;;;;;;;;;34.33;31.33;;;;;;;;5098342;27;45306;-78
2022/05/23 13:14:48;;;;;;;;;40.67;35.33;;;;;;;;5099306;27;45379;-76
2022/05/23 13:17:26;;;;;;;;;37.67;33.67;;;;;;;;5078770;27;46905;-76
2022/05/23 13:22:37;;;;;;;;;42.67;36.33;;;;;;;;5084322;27;45306;-76
2022/05/23 13:25:02;;;;;;;;;43.50;36.75;;;;;;;;5087503;27;45369;-76
2022/05/23 13:27:29;;;;;;;;;36.67;32.67;;;;;;;;5086535;27;46660;-76
2022/05/23 13:30:06;;;;;;;;;32.67;30.00;;;;;;;;5086360;27;45362;-77
2022/05/23 13:32:31;;;;;;;;;37.00;33.00;;;;;;;;5088386;27;45348;-76
2022/05/23 13:34:59;;;;;;;;;37.33;32.67;;;;;;;;5095775;27;45289;-77
2022/05/23 13:37:27;;;;;;;;;44.33;37.67;;;;;;;;5095850;27;45577;-75
2022/05/23 13:39:53;;;;;;;;;34.33;30.67;;;;;;;;5081509;28;45307;-76
2022/05/23 13:42:19;;;;;;;;;35.00;31.33;;;;;;;;5089002;27;45606;-78
2022/05/23 13:44:45;;;;;;;;;35.67;30.00;;;;;;;;5078868;27;45422;-76
2022/05/23 13:47:13;;;;;;;;;29.67;28.67;;;;;;;;5080128;27;46304;-76
2022/05/23 13:49:42;;;;;;;;;26.33;26.33;;;;;;;;5080234;27;45285;-77
2022/05/23 13:52:10;;;;;;;;;20.00;20.00;;;;;;;;5080666;27;45369;-77
2022/05/23 13:54:47;;;;;;;;;29.00;27.67;;;;;;;;5080480;27;45545;-76
2022/05/23 13:57:16;;;;;;;;;31.33;29.67;;;;;;;;5091948;27;47715;-76
2022/05/23 13:59:44;;;;;;;;;33.67;29.33;;;;;;;;5080159;27;45484;-76
2022/05/23 14:02:16;;;;;;;;;27.33;27.00;;;;;;;;5079346;27;45362;-78
2022/05/23 14:04:42;;;;;;;;;30.67;27.67;;;;;;;;5079986;27;45515;-76
2022/05/23 14:07:09;;;;;;;;;28.00;26.67;;;;;;;;5080206;27;45843;-77
2022/05/23 14:09:39;;;;;;;;;26.00;24.67;;;;;;;;5080323;27;45479;-75
2022/05/23 14:12:06;;;;;;;;;25.33;25.00;;;;;;;;5093628;27;45404;-75
2022/05/23 14:14:37;;;;;;;;;26.67;24.67;;;;;;;;5080621;27;46734;-76
2022/05/23 14:17:16;;;;;;;;;23.00;22.33;;;;;;;;5080150;27;45396;-78
2022/05/23 14:19:46;;;;;;;;;24.00;24.00;;;;;;;;5081269;27;45388;-74
2022/05/23 14:22:24;;;;;;;;;21.00;21.00;;;;;;;;5081317;28;45303;-74
2022/05/23 14:24:51;;;;;;;;;22.33;21.67;;;;;;;;5084699;27;46273;-75
2022/05/23 14:27:16;;;;;;;;;21.00;18.67;;;;;;;;5081613;27;46100;-75
2022/05/23 14:29:42;;;;;;;;;19.00;19.00;;;;;;;;5081265;27;45385;-74
2022/05/23 14:32:18;;;;;;;;;18.67;17.00;;;;;;;;5080814;27;45497;-75
2022/05/23 14:34:43;;;;;;;;;20.00;20.00;;;;;;;;5088976;27;46245;-75
2022/05/23 14:37:09;;;;;;;;;16.67;16.67;;;;;;;;5095103;27;48070;-75
2022/05/23 14:39:35;;;;;;;;;16.00;15.00;;;;;;;;5084214;27;45404;-75
2022/05/23 14:42:35;;;;;;;;;15.00;15.00;;;;;;;;5094032;27;45651;-76
2022/05/23 14:45:13;;;;;;;;;15.67;15.67;;;;;;;;5077671;28;45679;-74
2022/05/23 14:47:52;;;;;;;;;16.33;16.33;;;;;;;;5084188;27;46321;-75
2022/05/23 14:50:19;;;;;;;;;15.00;13.33;;;;;;;;5092772;27;45444;-74
2022/05/23 14:52:46;;;;;;;;;17.67;16.00;;;;;;;;5094012;27;45453;-75
2022/05/23 14:55:19;;;;;;;;;16.00;16.00;;;;;;;;5090411;27;45392;-75
2022/05/23 15:00:39;;;;;;;;;14.00;14.00;;;;;;;;5089417;27;45443;-75
2022/05/23 15:03:14;;;;;;;;;15.67;14.00;;;;;;;;5082241;27;45809;-75
2022/05/23 15:05:39;;;;;;;;;16.33;15.00;;;;;;;;5089685;27;45397;-75
2022/05/23 15:08:05;;;;;;;;;13.33;13.00;;;;;;;;5090125;27;45321;-75
2022/05/23 15:10:31;;;;;;;;;13.67;12.67;;;;;;;;5092103;27;45286;-74
2022/05/23 15:12:56;;;;;;;;;12.67;12.67;;;;;;;;5081865;27;45370;-75
2022/05/23 15:15:22;;;;;;;;;10.67;10.33;;;;;;;;5096353;27;45578;-75
2022/05/23 15:17:47;;;;;;;;;10.00;10.00;;;;;;;;5088767;27;45407;-75
2022/05/23 15:20:13;;;;;;;;;10.67;10.67;;;;;;;;5091629;27;45502;-75
2022/05/23 15:22:41;;;;;;;;;9.67;9.00;;;;;;;;5091333;27;45490;-74
2022/05/23 15:25:06;;;;;;;;;8.33;8.33;;;;;;;;5089450;27;45377;-75
2022/05/23 15:27:32;;;;;;;;;10.33;10.33;;;;;;;;5089424;27;46291;-75
2022/05/23 15:30:00;;;;;;;;;7.00;7.00;;;;;;;;5089562;27;45302;-75
2022/05/23 15:32:25;;;;;;;;;8.00;8.00;;;;;;;;5092683;27;45434;-74
2022/05/23 15:34:50;;;;;;;;;8.00;7.33;;;;;;;;5081696;27;45302;-75
2022/05/23 15:37:15;;;;;;;;;7.00;7.00;;;;;;;;5091030;27;45305;-75